Time;durP1;ratioP1;P1;durP2;ratioP2;P2;SDS_P1;SDS_P2;PMS_P1;PMS_P2;Temp;Humidity;BMP_temperature;BMP_pressure;BME280_temperature;BME280_humidity;BME280_pressure;Samples;Min_cycle;Max_cycle;Signal;HPM_P1;HPM_P2
2021/05/08 00:00:17;;;;;;;8.32;5.35;;;;;;;5.43;66.59;100240.50;2171848;41;20584;-80
2021/05/08 00:01:50;;;;;;;7.45;4.72;;;;;;;5.45;66.59;100243.91;2187700;40;20043;-80
2021/05/08 00:04:07;;;;;;;8.70;4.75;;;;;;;5.50;66.36;100243.56;2176632;40;20580;-81
2021/05/08 00:05:40;;;;;;;7.32;5.05;;;;;;;5.57;66.12;100238.69;2187534;40;20031;-80
2021/05/08 00:07:14;;;;;;;8.57;4.90;;;;;;;5.58;65.47;100240.38;2186316;40;20055;-79
2021/05/08 00:08:47;;;;;;;10.13;5.35;;;;;;;5.65;65.40;100236.34;2190448;40;20035;-80
2021/05/08 00:10:20;;;;;;;7.53;4.45;;;;;;;5.71;65.06;100235.06;2183393;40;20055;-80
2021/05/08 00:11:55;;;;;;;6.90;4.28;;;;;;;5.72;65.03;100242.91;2195266;40;20045;-80
2021/05/08 00:13:26;;;;;;;8.40;5.65;;;;;;;5.73;65.03;100235.78;2198651;40;20046;-79
2021/05/08 00:14:59;;;;;;;9.93;5.32;;;;;;;5.70;65.31;100236.84;2200521;40;20043;-79
2021/05/08 00:16:30;;;;;;;8.90;5.80;;;;;;;5.71;65.49;100241.22;2199411;40;20053;-78
2021/05/08 00:18:01;;;;;;;7.72;5.40;;;;;;;5.74;65.48;100243.66;2200494;40;20101;-80
2021/05/08 00:19:33;;;;;;;9.45;5.78;;;;;;;5.71;65.54;100230.59;2198989;40;20636;-79
2021/05/08 00:21:05;;;;;;;9.27;5.05;;;;;;;5.72;65.85;100229.66;2202485;40;20116;-79
2021/05/08 00:22:37;;;;;;;10.15;6.05;;;;;;;5.66;65.98;100231.88;2198978;40;20366;-80
2021/05/08 00:24:09;;;;;;;9.32;5.80;;;;;;;5.65;66.33;100240.78;2208372;40;20026;-79
2021/05/08 00:25:41;;;;;;;7.30;5.15;;;;;;;5.63;66.43;100230.28;2205103;40;20050;-79
2021/05/08 00:27:13;;;;;;;8.07;5.55;;;;;;;5.65;66.65;100241.66;2206294;40;20096;-78
2021/05/08 00:28:44;;;;;;;9.07;5.97;;;;;;;5.59;66.89;100236.75;2211493;40;20054;-79
2021/05/08 00:30:17;;;;;;;8.25;5.10;;;;;;;5.54;67.10;100249.50;2199126;40;20051;-79
2021/05/08 00:31:48;;;;;;;11.43;6.05;;;;;;;5.51;67.26;100250.59;2207022;40;20038;-79
2021/05/08 00:33:20;;;;;;;11.55;6.68;;;;;;;5.52;67.14;100243.47;2205549;40;20724;-80
2021/05/08 00:34:52;;;;;;;11.32;6.57;;;;;;;5.50;67.21;100240.06;2206829;40;20042;-79
2021/05/08 00:36:23;;;;;;;7.18;5.00;;;;;;;5.45;67.41;100237.72;2211257;40;20042;-81
2021/05/08 00:37:55;;;;;;;8.65;5.88;;;;;;;5.41;67.61;100237.09;2212724;40;20045;-80
2021/05/08 00:39:27;;;;;;;10.68;6.22;;;;;;;5.36;67.49;100236.59;2211465;40;20037;-79
2021/05/08 00:40:58;;;;;;;8.98;5.88;;;;;;;5.34;67.62;100235.84;2213763;40;20093;-80
2021/05/08 00:42:30;;;;;;;9.80;5.35;;;;;;;5.36;67.65;100243.66;2211719;40;20096;-80
2021/05/08 00:44:01;;;;;;;7.68;5.38;;;;;;;5.31;67.40;100236.03;2212726;40;20425;-80
2021/05/08 00:45:33;;;;;;;9.98;5.40;;;;;;;5.27;67.46;100238.06;2211293;40;20471;-80
2021/05/08 00:47:05;;;;;;;9.75;6.32;;;;;;;5.21;67.70;100243.78;2212536;40;20030;-79
2021/05/08 00:48:37;;;;;;;10.75;5.75;;;;;;;5.19;67.94;100237.75;2211338;40;20055;-80
2021/05/08 00:50:11;;;;;;;10.10;5.18;;;;;;;5.22;67.89;100242.84;2212825;40;20088;-80
2021/05/08 00:51:42;;;;;;;9.82;5.32;;;;;;;5.20;67.82;100241.22;2203569;40;20093;-79
2021/05/08 00:53:14;;;;;;;8.15;5.78;;;;;;;5.23;68.04;100251.63;2201044;40;20043;-79
2021/05/08 00:54:46;;;;;;;9.45;5.32;;;;;;;5.21;67.94;100243.78;2207263;40;20050;-80
2021/05/08 00:56:17;;;;;;;10.70;5.63;;;;;;;5.21;68.06;100238.50;2213079;40;20046;-80
2021/05/08 00:57:48;;;;;;;7.90;4.63;;;;;;;5.19;68.00;100245.69;2211529;40;20125;-80
2021/05/08 00:59:21;;;;;;;8.00;4.72;;;;;;;5.20;68.09;100251.81;2200631;40;20046;-80
2021/05/08 01:00:55;;;;;;;10.13;5.65;;;;;;;5.15;68.27;100246.84;2201914;40;20054;-79
2021/05/08 01:02:26;;;;;;;7.63;5.10;;;;;;;5.11;68.25;100243.56;2212834;40;20030;-79
2021/05/08 01:03:57;;;;;;;9.13;5.70;;;;;;;5.11;68.33;100254.16;2211231;40;20045;-80
2021/05/08 01:05:32;;;;;;;10.05;5.60;;;;;;;5.08;68.40;100254.38;2213080;40;20403;-79
2021/05/08 01:07:05;;;;;;;11.07;6.32;;;;;;;5.07;68.31;100251.81;2216007;40;20053;-79
2021/05/08 01:08:38;;;;;;;9.23;5.60;;;;;;;5.03;68.43;100248.53;2219058;40;20037;-80
2021/05/08 01:10:12;;;;;;;9.93;5.50;;;;;;;5.03;68.56;100245.06;2217300;40;20042;-79
2021/05/08 01:11:44;;;;;;;11.38;6.22;;;;;;;5.06;68.34;100244.81;2219255;40;20037;-79
2021/05/08 01:13:16;;;;;;;11.27;5.68;;;;;;;5.06;68.47;100242.16;2209732;40;20366;-79
2021/05/08 01:14:48;;;;;;;9.30;5.47;;;;;;;5.03;68.50;100239.75;2207581;40;20045;-78
2021/05/08 01:16:20;;;;;;;10.38;5.20;;;;;;;5.05;68.61;100240.50;2206241;40;20100;-79
2021/05/08 01:17:51;;;;;;;11.40;5.95;;;;;;;5.04;68.72;100236.16;2207660;40;20050;-80
2021/05/08 01:19:25;;;;;;;8.63;5.80;;;;;;;5.00;68.75;100240.81;2206276;40;20065;-79
2021/05/08 01:20:56;;;;;;;11.25;5.68;;;;;;;4.94;68.79;100235.91;2207405;40;20359;-79
2021/05/08 01:22:28;;;;;;;9.85;5.88;;;;;;;4.84;68.96;100233.88;2206234;40;20065;-80
2021/05/08 01:23:59;;;;;;;9.88;5.68;;;;;;;4.79;69.33;100233.34;2219967;40;20054;-79
2021/05/08 01:25:31;;;;;;;8.50;5.05;;;;;;;4.78;69.44;100236.09;2217973;40;20057;-79
2021/05/08 01:27:02;;;;;;;9.88;5.40;;;;;;;4.77;69.66;100240.56;2213765;40;20038;-79
2021/05/08 01:28:34;;;;;;;7.38;4.88;;;;;;;4.79;69.50;100233.34;2212404;40;20050;-80
2021/05/08 01:30:07;;;;;;;10.82;5.60;;;;;;;4.80;69.50;100242.13;2213891;40;20081;-79
2021/05/08 01:31:38;;;;;;;9.95;5.95;;;;;;;4.80;69.49;100242.13;2206027;40;20053;-80
2021/05/08 01:33:09;;;;;;;8.23;5.90;;;;;;;4.83;69.63;100244.59;2207491;40;20480;-79
2021/05/08 01:34:40;;;;;;;7.53;5.75;;;;;;;4.81;69.53;100247.34;2206717;40;20050;-80
2021/05/08 01:36:12;;;;;;;14.93;6.18;;;;;;;4.83;69.41;100244.59;2207912;40;20108;-79
2021/05/08 01:37:45;;;;;;;9.93;5.15;;;;;;;4.83;69.46;100240.13;2210439;40;20053;-79
2021/05/08 01:39:17;;;;;;;9.43;5.05;;;;;;;4.82;69.62;100249.03;2211630;40;20038;-78
2021/05/08 01:40:59;;;;;;;7.57;5.10;;;;;;;4.81;69.55;100239.41;2216640;40;20029;-79
2021/05/08 01:42:31;;;;;;;7.38;5.03;;;;;;;4.74;69.55;100240.75;2205563;40;20468;-80
2021/05/08 01:44:04;;;;;;;8.48;5.28;;;;;;;4.70;69.70;100241.91;2207706;40;20031;-80
2021/05/08 01:45:36;;;;;;;9.27;5.10;;;;;;;4.67;69.66;100235.03;2214797;40;20048;-79
2021/05/08 01:47:08;;;;;;;10.65;6.05;;;;;;;4.66;69.81;100235.97;2219944;40;20405;-79
2021/05/08 01:48:39;;;;;;;8.80;4.70;;;;;;;4.65;69.84;100231.63;2212926;40;20058;-79
2021/05/08 01:50:13;;;;;;;7.93;4.47;;;;;;;4.65;69.96;100231.63;2213983;40;20037;-79
2021/05/08 01:51:45;;;;;;;9.00;5.45;;;;;;;4.67;69.78;100229.75;2212083;40;20053;-78
2021/05/08 01:53:18;;;;;;;9.00;5.32;;;;;;;4.69;69.83;100227.81;2214519;40;20053;-79
2021/05/08 01:54:50;;;;;;;8.35;5.30;;;;;;;4.67;69.85;100228.88;2212673;40;20109;-80
2021/05/08 01:56:25;;;;;;;9.40;5.82;;;;;;;4.65;69.83;100230.75;2214929;40;20032;-82
2021/05/08 01:57:58;;;;;;;8.20;5.00;;;;;;;4.63;69.88;100230.88;2206252;40;20101;-80
2021/05/08 01:59:29;;;;;;;9.63;5.05;;;;;;;4.63;69.87;100227.41;2208397;40;20039;-80
2021/05/08 02:01:02;;;;;;;9.52;4.93;;;;;;;4.63;69.98;100227.41;2203028;40;20050;-80
2021/05/08 02:02:33;;;;;;;7.97;5.93;;;;;;;4.65;69.96;100222.81;2202014;40;20335;-80
2021/05/08 02:04:09;;;;;;;7.68;5.30;;;;;;;4.64;70.00;100221.13;2203261;40;20090;-80
2021/05/08 02:05:43;;;;;;;9.23;5.82;;;;;;;4.62;70.12;100220.41;2208883;40;20027;-80
2021/05/08 02:07:15;;;;;;;9.48;5.93;;;;;;;4.63;70.13;100216.81;2206338;40;20066;-80
2021/05/08 02:08:47;;;;;;;8.50;5.25;;;;;;;4.63;70.01;100214.16;2208750;40;20030;-80
2021/05/08 02:10:19;;;;;;;5.95;3.90;;;;;;;4.65;70.18;100217.53;2207104;40;20083;-79
2021/05/08 02:11:51;;;;;;;10.57;5.95;;;;;;;4.65;70.33;100210.44;2207139;40;20442;-79
2021/05/08 02:13:22;;;;;;;8.38;5.03;;;;;;;4.64;70.25;100206.09;2205953;40;20054;-79
2021/05/08 02:14:53;;;;;;;8.02;5.57;;;;;;;4.64;70.10;100208.75;2206975;40;20034;-80
2021/05/08 02:16:24;;;;;;;10.45;6.55;;;;;;;4.65;70.05;100207.78;2207337;40;20057;-79
2021/05/08 02:17:56;;;;;;;8.02;4.70;;;;;;;4.63;70.35;100203.56;2209668;40;20031;-79
2021/05/08 02:19:27;;;;;;;9.50;5.45;;;;;;;4.62;70.21;100199.22;2208735;40;20240;-79
2021/05/08 02:20:58;;;;;;;12.15;6.00;;;;;;;4.61;70.30;100206.28;2212760;40;20046;-79
2021/05/08 02:22:30;;;;;;;7.60;4.97;;;;;;;4.58;70.28;100193.25;2208375;40;20040;-79
2021/05/08 02:24:05;;;;;;;6.93;4.80;;;;;;;4.57;70.16;100196.00;2210124;40;20034;-80
2021/05/08 02:25:36;;;;;;;7.63;4.80;;;;;;;4.55;70.16;100193.47;2213158;40;20049;-79
2021/05/08 02:27:09;;;;;;;8.45;5.45;;;;;;;4.55;70.36;100192.59;2216531;40;20026;-78
2021/05/08 02:28:40;;;;;;;9.38;5.68;;;;;;;4.53;70.37;100196.19;2203086;40;20061;-79
2021/05/08 02:30:18;;;;;;;7.63;5.32;;;;;;;4.52;70.59;100199.81;2204286;40;20069;-80
2021/05/08 02:32:02;;;;;;;7.38;5.00;;;;;;;4.48;70.68;100190.38;2203023;40;20067;-80
2021/05/08 02:33:49;;;;;;;7.00;5.30;;;;;;;4.47;70.82;100193.97;2201378;40;20055;-80
2021/05/08 02:35:31;;;;;;;7.80;5.70;;;;;;;4.43;71.17;100197.78;2198818;40;20042;-82
2021/05/08 02:37:20;;;;;;;11.00;6.22;;;;;;;4.39;71.21;100192.81;2196609;40;20094;-80
2021/05/08 02:38:53;;;;;;;9.43;5.70;;;;;;;4.36;71.48;100201.75;2198093;40;20032;-79
2021/05/08 02:40:32;;;;;;;8.45;5.63;;;;;;;4.30;71.73;100191.59;2199328;40;20391;-80
2021/05/08 02:42:04;;;;;;;10.50;6.15;;;;;;;4.29;71.68;100205.78;2201738;40;20058;-79
2021/05/08 02:43:35;;;;;;;6.95;4.63;;;;;;;4.23;71.71;100199.09;2194590;40;20059;-80
2021/05/08 02:45:15;;;;;;;6.88;4.93;;;;;;;4.26;71.65;100198.03;2196014;40;20036;-80
2021/05/08 02:46:47;;;;;;;8.77;5.68;;;;;;;4.22;71.67;100195.59;2195081;40;20064;-80
2021/05/08 02:48:18;;;;;;;8.27;5.03;;;;;;;4.24;71.56;100197.31;2194943;40;20032;-81
2021/05/08 02:49:51;;;;;;;7.07;4.68;;;;;;;4.24;71.52;100197.31;2196547;40;20079;-80
2021/05/08 02:51:23;;;;;;;7.63;5.57;;;;;;;4.19;71.60;100197.59;2195197;40;20086;-82
2021/05/08 02:52:54;;;;;;;8.85;5.38;;;;;;;4.10;71.78;100193.75;2203031;40;20042;-79
2021/05/08 02:54:25;;;;;;;8.77;6.18;;;;;;;4.03;72.04;100209.16;2200385;40;20074;-79
2021/05/08 02:55:57;;;;;;;9.43;6.18;;;;;;;3.94;72.51;100198.34;2204043;40;20127;-79
2021/05/08 02:57:29;;;;;;;8.90;5.88;;;;;;;3.93;72.41;100201.91;2214499;40;20025;-79
2021/05/08 02:59:00;;;;;;;9.88;5.20;;;;;;;3.94;72.58;100199.16;2215370;40;20081;-79
2021/05/08 03:00:31;;;;;;;9.23;5.30;;;;;;;3.97;72.47;100208.72;2212369;40;20038;-79
2021/05/08 03:02:04;;;;;;;8.18;5.55;;;;;;;3.98;72.54;100197.16;2213341;40;20060;-79
2021/05/08 03:03:36;;;;;;;9.32;6.15;;;;;;;4.00;72.60;100203.22;2211499;40;20243;-80
2021/05/08 03:05:09;;;;;;;9.05;6.10;;;;;;;3.98;72.67;100200.69;2212989;40;20038;-79
2021/05/08 03:06:41;;;;;;;9.80;6.00;;;;;;;4.02;72.36;100202.16;2183329;40;20109;-78
2021/05/08 03:08:12;;;;;;;8.55;5.82;;;;;;;4.04;72.65;100194.16;2192973;40;20930;-80
2021/05/08 03:09:44;;;;;;;12.98;9.95;;;;;;;4.04;72.43;100200.28;2192347;40;20459;-79
2021/05/08 03:11:16;;;;;;;8.88;6.40;;;;;;;4.05;72.29;100196.69;2193022;40;20346;-79
2021/05/08 03:12:49;;;;;;;11.32;5.55;;;;;;;4.02;72.30;100196.88;2202868;40;20050;-78
2021/05/08 03:14:20;;;;;;;8.50;5.97;;;;;;;4.03;72.36;100200.38;2206987;40;20031;-79
2021/05/08 03:15:51;;;;;;;8.02;5.63;;;;;;;4.06;72.46;100197.56;2205491;40;20050;-78
2021/05/08 03:17:23;;;;;;;10.30;5.55;;;;;;;4.04;72.13;100200.28;2206662;40;20027;-80
2021/05/08 03:18:56;;;;;;;7.43;5.47;;;;;;;4.03;72.20;100195.09;2205830;40;20062;-79
2021/05/08 03:20:28;;;;;;;9.10;5.82;;;;;;;4.01;72.36;100194.34;2207751;40;20035;-80
2021/05/08 03:22:00;;;;;;;6.90;4.57;;;;;;;3.98;72.26;100191.88;2212142;40;20037;-79
2021/05/08 03:23:32;;;;;;;7.00;4.75;;;;;;;3.96;72.34;100193.81;2212346;40;20148;-80
2021/05/08 03:25:04;;;;;;;9.13;5.30;;;;;;;3.94;72.46;100193.03;2210883;40;20090;-80
2021/05/08 03:26:36;;;;;;;9.35;5.20;;;;;;;3.93;72.44;100188.69;2212283;40;20399;-80
2021/05/08 03:28:08;;;;;;;6.70;4.28;;;;;;;3.95;72.48;100184.16;2211552;40;20691;-81
2021/05/08 03:29:39;;;;;;;7.50;4.68;;;;;;;3.96;72.34;100193.81;2213083;40;20049;-79
2021/05/08 03:31:11;;;;;;;8.00;5.45;;;;;;;3.96;72.17;100191.16;2214502;40;20052;-79
2021/05/08 03:32:42;;;;;;;7.53;5.40;;;;;;;3.92;72.21;100187.81;2215919;40;20453;-80
2021/05/08 03:34:13;;;;;;;8.77;5.53;;;;;;;3.86;72.35;100191.75;2213174;40;20058;-79
2021/05/08 03:35:45;;;;;;;10.55;5.20;;;;;;;3.85;72.63;100195.34;2211898;40;20034;-78
2021/05/08 03:37:16;;;;;;;6.97;4.38;;;;;;;3.82;72.55;100186.75;2213091;40;20060;-79
2021/05/08 03:38:47;;;;;;;11.20;6.25;;;;;;;3.75;72.42;100179.19;2219477;40;20044;-79
2021/05/08 03:40:19;;;;;;;8.25;5.18;;;;;;;3.79;72.74;100190.41;2217214;40;20069;-79
2021/05/08 03:41:51;;;;;;;8.25;5.28;;;;;;;3.79;72.60;100198.34;2218949;40;20033;-79
2021/05/08 03:43:23;;;;;;;8.68;5.30;;;;;;;3.77;72.54;100189.69;2217891;40;20065;-78
2021/05/08 03:44:54;;;;;;;6.88;4.20;;;;;;;3.78;72.71;100187.88;2218631;40;20037;-79
2021/05/08 03:46:25;;;;;;;8.13;4.90;;;;;;;3.81;72.53;100188.53;2211009;40;20040;-79
2021/05/08 03:47:57;;;;;;;10.23;6.43;;;;;;;3.82;72.42;100190.22;2214518;40;20033;-78
2021/05/08 03:49:28;;;;;;;7.35;4.68;;;;;;;3.80;72.58;100186.81;2217254;40;20037;-80
2021/05/08 03:50:59;;;;;;;6.93;4.75;;;;;;;3.78;72.50;100196.66;2219058;40;20033;-78
2021/05/08 03:52:32;;;;;;;9.70;4.75;;;;;;;3.77;72.53;100189.69;2212522;40;20084;-79
2021/05/08 03:54:04;;;;;;;8.63;4.70;;;;;;;3.75;72.46;100192.41;2213679;40;20418;-79
2021/05/08 03:55:37;;;;;;;9.68;4.78;;;;;;;3.77;72.56;100186.19;2210815;40;20037;-78
2021/05/08 03:57:10;;;;;;;10.15;5.60;;;;;;;3.74;72.65;100187.22;2210966;40;20060;-79
2021/05/08 03:58:41;;;;;;;7.32;4.65;;;;;;;3.72;72.53;100189.13;2211800;40;20065;-79
2021/05/08 04:00:15;;;;;;;7.22;4.60;;;;;;;3.71;72.56;100188.28;2206548;40;20027;-79
2021/05/08 04:01:45;;;;;;;8.48;5.85;;;;;;;3.67;72.68;100192.03;2205209;40;20050;-79
2021/05/08 04:03:17;;;;;;;7.90;4.88;;;;;;;3.60;72.75;100185.44;2211229;40;20046;-79
2021/05/08 04:04:48;;;;;;;7.70;5.13;;;;;;;3.57;72.83;100191.78;2212397;40;20038;-79
2021/05/08 04:06:20;;;;;;;9.25;6.18;;;;;;;3.57;72.83;100196.22;2210850;40;20116;-78
2021/05/08 04:07:51;;;;;;;8.70;5.18;;;;;;;3.54;72.89;100191.13;2212301;40;20038;-79
2021/05/08 04:09:23;;;;;;;7.60;4.35;;;;;;;3.56;72.94;100192.72;2210688;40;20038;-79
2021/05/08 04:10:54;;;;;;;9.18;5.40;;;;;;;3.59;72.70;100196.97;2212151;40;20038;-78
2021/05/08 04:12:26;;;;;;;10.05;5.85;;;;;;;3.58;72.79;100189.97;2211779;40;20056;-79
2021/05/08 04:13:57;;;;;;;10.00;6.32;;;;;;;3.56;72.68;100190.09;2212798;40;20050;-79
2021/05/08 04:15:28;;;;;;;7.75;4.28;;;;;;;3.54;72.77;100185.84;2217328;40;20026;-78
2021/05/08 04:17:00;;;;;;;10.30;5.70;;;;;;;3.55;72.82;100198.97;2219226;40;20048;-79
2021/05/08 04:18:31;;;;;;;8.80;5.30;;;;;;;3.55;72.95;100198.09;2218318;40;20034;-79
2021/05/08 04:20:04;;;;;;;7.07;4.45;;;;;;;3.57;72.92;100197.09;2218566;40;20466;-79
2021/05/08 04:21:35;;;;;;;7.18;3.88;;;;;;;3.60;72.82;100193.38;2217537;40;20065;-79
2021/05/08 04:23:07;;;;;;;11.63;5.88;;;;;;;3.59;72.69;100192.53;2218464;40;20034;-80
2021/05/08 04:24:37;;;;;;;7.90;4.72;;;;;;;3.63;72.60;100190.56;2217518;40;20089;-78
2021/05/08 04:26:09;;;;;;;7.28;4.30;;;;;;;3.68;72.67;100193.75;2219008;40;20322;-79
2021/05/08 04:27:41;;;;;;;6.07;4.20;;;;;;;3.73;72.58;100190.81;2216457;40;20640;-80
2021/05/08 04:29:13;;;;;;;8.07;4.13;;;;;;;3.74;72.59;100190.72;2212635;40;20034;-79
2021/05/08 04:30:44;;;;;;;7.60;5.32;;;;;;;3.76;72.47;100188.00;2211136;40;20089;-79
2021/05/08 04:32:15;;;;;;;8.07;3.92;;;;;;;3.72;72.43;100187.34;2211418;40;20038;-79
2021/05/08 04:33:47;;;;;;;7.78;4.53;;;;;;;3.74;72.60;100182.78;2205705;40;20117;-79
2021/05/08 04:35:18;;;;;;;9.55;5.40;;;;;;;3.80;72.54;100192.13;2207446;40;20019;-78
2021/05/08 04:36:50;;;;;;;9.13;4.80;;;;;;;3.81;72.34;100183.25;2205065;40;20347;-79
2021/05/08 04:38:22;;;;;;;8.70;5.20;;;;;;;3.82;72.27;100187.59;2207587;40;20042;-79
2021/05/08 04:39:56;;;;;;;10.02;6.47;;;;;;;3.83;72.17;100180.47;2205782;40;20056;-79
2021/05/08 04:41:35;;;;;;;9.40;4.72;;;;;;;3.81;72.24;100191.16;2210026;40;20039;-78
2021/05/08 04:43:09;;;;;;;7.10;4.63;;;;;;;3.82;72.31;100198.16;2205365;40;20067;-79
2021/05/08 04:44:42;;;;;;;6.88;4.60;;;;;;;3.81;72.08;100187.69;2204152;40;20105;-78
2021/05/08 04:46:23;;;;;;;10.05;5.10;;;;;;;3.82;72.28;100195.53;2206519;40;20045;-79
2021/05/08 04:47:56;;;;;;;11.75;5.63;;;;;;;3.84;72.24;100203.34;2212181;40;20038;-78
2021/05/08 04:49:38;;;;;;;8.20;4.72;;;;;;;3.79;72.34;100198.34;2188636;40;20026;-78
2021/05/08 04:51:19;;;;;;;8.48;5.03;;;;;;;3.77;72.25;100191.47;2209225;40;20027;-78
2021/05/08 04:53:01;;;;;;;9.60;4.18;;;;;;;3.82;72.14;100192.88;2150561;40;20052;-79
2021/05/08 04:54:34;;;;;;;7.35;5.03;;;;;;;3.79;72.12;100190.41;2172622;40;20092;-77
2021/05/08 04:56:06;;;;;;;9.27;5.47;;;;;;;3.81;72.08;100182.41;2160365;41;20058;-79
2021/05/08 04:57:38;;;;;;;7.80;4.85;;;;;;;3.77;72.35;100187.03;2143217;41;20040;-79
2021/05/08 05:00:57;;;;;;;10.20;6.30;;;;;;;3.58;72.22;100182.91;2156177;41;20034;-79
2021/05/08 05:02:29;;;;;;;8.85;5.47;;;;;;;3.51;72.35;100178.94;2159200;41;20030;-78
2021/05/08 05:04:00;;;;;;;10.45;6.30;;;;;;;3.47;72.82;100182.75;2152823;41;20043;-78
2021/05/08 05:05:32;;;;;;;10.43;6.15;;;;;;;3.51;72.64;100180.75;2146307;41;20046;-78
2021/05/08 05:07:03;;;;;;;8.77;5.18;;;;;;;3.57;72.71;100194.44;2144949;41;20085;-78
2021/05/08 05:08:34;;;;;;;7.65;5.00;;;;;;;3.64;72.49;100192.22;2140998;41;20047;-78
2021/05/08 05:10:07;;;;;;;10.10;4.78;;;;;;;3.71;72.33;100187.41;2175181;41;20048;-77
2021/05/08 05:11:38;;;;;;;6.72;4.20;;;;;;;3.80;72.13;100197.41;2198955;40;20031;-77
2021/05/08 05:13:09;;;;;;;10.50;5.40;;;;;;;3.88;71.88;100189.81;2211540;40;20022;-77
2021/05/08 05:14:41;;;;;;;7.68;3.67;;;;;;;3.94;71.71;100182.47;2203407;40;20081;-78
2021/05/08 05:16:12;;;;;;;7.38;5.22;;;;;;;3.99;71.54;100185.66;2199593;40;20039;-77
2021/05/08 05:17:43;;;;;;;11.18;5.30;;;;;;;4.01;71.60;100194.34;2187763;40;20059;-78
2021/05/08 05:19:15;;;;;;;11.57;5.70;;;;;;;3.99;71.51;100190.94;2162397;40;20051;-79
2021/05/08 05:20:46;;;;;;;7.05;5.30;;;;;;;4.00;71.28;100184.69;2174317;41;20040;-78
2021/05/08 05:22:18;;;;;;;9.57;3.90;;;;;;;4.03;71.51;100181.88;2164000;41;20085;-79
2021/05/08 05:23:49;;;;;;;8.02;5.03;;;;;;;4.10;71.54;100188.44;2167402;41;20086;-77
2021/05/08 05:25:21;;;;;;;8.73;5.47;;;;;;;4.10;71.42;100185.81;2155228;40;20033;-78
2021/05/08 05:26:52;;;;;;;7.28;5.43;;;;;;;4.14;71.19;100184.66;2165892;41;20025;-76
2021/05/08 05:28:25;;;;;;;10.18;5.65;;;;;;;4.18;71.30;100188.78;2167075;40;20049;-77
2021/05/08 05:29:58;;;;;;;9.45;5.90;;;;;;;4.25;71.30;100183.13;2166885;41;20434;-77
2021/05/08 05:31:33;;;;;;;8.70;5.32;;;;;;;4.29;70.99;100181.94;2166531;40;20063;-79
2021/05/08 05:33:06;;;;;;;10.38;6.40;;;;;;;4.27;71.10;100186.50;2213440;40;20034;-79
2021/05/08 05:34:38;;;;;;;8.02;5.72;;;;;;;4.19;71.01;100187.84;2183595;40;20031;-79
2021/05/08 05:36:30;;;;;;;6.22;4.18;;;;;;;4.26;71.19;100188.31;2200201;40;20023;-80
2021/05/08 05:38:03;;;;;;;8.30;4.38;;;;;;;4.33;71.00;100194.06;2161859;40;20046;-76
2021/05/08 05:39:56;;;;;;;8.52;4.82;;;;;;;4.39;70.66;100193.63;2198924;40;20070;-78
2021/05/08 05:41:28;;;;;;;10.05;5.97;;;;;;;4.40;70.53;100190.03;2204513;40;20093;-76
2021/05/08 05:43:00;;;;;;;12.57;6.18;;;;;;;4.42;70.50;100188.16;2204928;40;20112;-76
2021/05/08 05:44:31;;;;;;;8.23;5.43;;;;;;;4.45;70.34;100192.38;2208435;40;20035;-79
2021/05/08 05:46:03;;;;;;;10.75;5.03;;;;;;;4.49;70.29;100197.38;2211153;40;20034;-75
2021/05/08 05:47:38;;;;;;;9.20;5.47;;;;;;;4.56;70.23;100194.31;2210726;40;20389;-77
2021/05/08 05:49:09;;;;;;;10.55;6.22;;;;;;;4.58;70.06;100187.13;2203944;40;20034;-77
2021/05/08 05:50:42;;;;;;;11.55;6.07;;;;;;;4.55;69.97;100196.13;2209811;40;20026;-76
2021/05/08 05:52:14;;;;;;;7.50;5.40;;;;;;;4.56;70.06;100184.56;2206471;40;20643;-77
2021/05/08 05:53:45;;;;;;;11.20;7.05;;;;;;;4.52;70.07;100191.88;2206601;40;20123;-77
2021/05/08 05:55:17;;;;;;;10.40;6.78;;;;;;;4.45;70.05;100181.78;2205481;40;20082;-78
2021/05/08 05:56:48;;;;;;;10.88;6.20;;;;;;;4.50;70.25;100177.88;2211225;40;20099;-77
2021/05/08 05:58:20;;;;;;;7.60;4.97;;;;;;;4.61;70.13;100178.97;2213344;40;20038;-77
2021/05/08 05:59:51;;;;;;;10.25;4.57;;;;;;;4.71;69.92;100177.41;2212499;40;20061;-78
2021/05/08 06:01:24;;;;;;;11.18;5.68;;;;;;;4.76;69.81;100175.28;2212729;40;20053;-79
2021/05/08 06:02:57;;;;;;;11.02;6.93;;;;;;;4.82;69.65;100171.38;2211789;40;20025;-79
2021/05/08 06:04:30;;;;;;;9.85;5.28;;;;;;;4.89;69.50;100174.44;2214945;40;20057;-77
2021/05/08 06:06:01;;;;;;;8.48;5.43;;;;;;;4.91;69.47;100168.09;2212885;40;20034;-78
2021/05/08 06:07:33;;;;;;;10.15;5.53;;;;;;;4.94;69.33;100172.31;2211535;40;20038;-75
2021/05/08 06:09:04;;;;;;;8.85;5.20;;;;;;;4.99;69.27;100176.34;2209120;40;20034;-77
2021/05/08 06:10:36;;;;;;;9.60;6.40;;;;;;;5.08;69.01;100171.38;2202216;40;20050;-76
2021/05/08 06:12:07;;;;;;;9.18;5.68;;;;;;;5.09;68.72;100175.72;2206566;40;20042;-77
2021/05/08 06:13:39;;;;;;;10.57;6.05;;;;;;;5.18;68.58;100175.06;2203223;40;20033;-76
2021/05/08 06:15:13;;;;;;;10.02;6.00;;;;;;;5.22;68.33;100183.66;2205842;40;20138;-75
2021/05/08 06:16:45;;;;;;;9.82;6.03;;;;;;;5.26;67.98;100188.63;2153862;40;20048;-77
2021/05/08 06:18:16;;;;;;;9.90;6.35;;;;;;;5.28;68.20;100185.91;2199307;40;20310;-77
2021/05/08 06:19:48;;;;;;;9.88;6.53;;;;;;;5.35;67.95;100181.84;2192203;40;20051;-76
2021/05/08 06:21:19;;;;;;;12.93;5.95;;;;;;;5.40;67.24;100182.38;2204914;40;20116;-78
2021/05/08 06:22:50;;;;;;;10.93;6.53;;;;;;;5.40;66.82;100177.06;2205634;40;20391;-76
2021/05/08 06:24:28;;;;;;;17.02;7.43;;;;;;;5.43;66.51;100179.50;2184095;40;20043;-77
2021/05/08 06:26:00;;;;;;;12.95;6.50;;;;;;;5.47;66.64;100175.69;2198003;40;20043;-77
2021/05/08 06:27:33;;;;;;;9.90;6.40;;;;;;;5.49;66.53;100172.06;2189739;40;20071;-76
2021/05/08 06:29:09;;;;;;;13.15;6.93;;;;;;;5.58;66.18;100176.72;2204402;40;20034;-77
2021/05/08 06:30:40;;;;;;;11.98;6.65;;;;;;;5.59;65.78;100178.41;2200987;40;20406;-76
2021/05/08 06:32:13;;;;;;;10.43;7.00;;;;;;;5.61;65.51;100176.50;2198281;40;20054;-77
2021/05/08 06:33:44;;;;;;;11.57;6.45;;;;;;;5.60;65.34;100180.09;2197465;40;20050;-76
2021/05/08 06:35:16;;;;;;;7.75;5.47;;;;;;;5.62;65.21;100173.72;2208300;40;20045;-78
2021/05/08 06:36:47;;;;;;;10.85;6.38;;;;;;;5.72;65.10;100181.03;2208231;40;20042;-78
2021/05/08 06:38:19;;;;;;;10.13;6.50;;;;;;;5.81;64.99;100180.38;2204350;40;20034;-77
2021/05/08 06:39:50;;;;;;;13.25;6.10;;;;;;;5.91;64.62;100173.44;2204862;40;20565;-78
2021/05/08 06:41:23;;;;;;;10.63;5.55;;;;;;;5.99;64.50;100170.25;2204984;40;20645;-78
2021/05/08 06:42:55;;;;;;;10.65;4.65;;;;;;;6.13;64.02;100171.06;2206686;40;20058;-79
2021/05/08 06:44:26;;;;;;;13.82;7.90;;;;;;;6.18;63.64;100168.91;2202007;40;20079;-77
2021/05/08 06:45:57;;;;;;;11.43;6.53;;;;;;;6.20;63.67;100169.66;2195045;40;20340;-78
2021/05/08 06:47:30;;;;;;;12.35;6.53;;;;;;;6.27;63.37;100162.91;2196006;40;20494;-77
2021/05/08 06:49:01;;;;;;;10.18;6.43;;;;;;;6.39;63.33;100163.81;2198479;40;20445;-77
2021/05/08 06:50:33;;;;;;;16.10;9.25;;;;;;;6.49;63.16;100156.84;2198894;40;20038;-79
2021/05/08 06:52:06;;;;;;;16.15;9.02;;;;;;;6.63;62.77;100155.78;2195709;40;20068;-76
2021/05/08 06:53:38;;;;;;;16.30;10.70;;;;;;;6.74;62.23;100152.34;2203020;40;20061;-77
2021/05/08 06:55:09;;;;;;;15.30;7.78;;;;;;;6.76;61.69;100157.53;2202555;40;20558;-76
2021/05/08 06:56:41;;;;;;;10.65;7.05;;;;;;;6.76;61.63;100139.75;2204835;40;20045;-76
2021/05/08 06:58:12;;;;;;;9.15;5.43;;;;;;;6.86;61.35;100143.41;2207845;40;20401;-79
2021/05/08 06:59:45;;;;;;;10.32;6.53;;;;;;;7.03;61.01;100149.25;2207911;40;20026;-78
2021/05/08 07:01:17;;;;;;;12.07;5.72;;;;;;;7.19;60.76;100143.56;2209342;40;20053;-77
2021/05/08 07:02:50;;;;;;;7.70;5.60;;;;;;;7.39;60.34;100141.13;2210240;40;20030;-78
2021/05/08 07:04:22;;;;;;;8.65;5.22;;;;;;;7.58;59.95;100137.88;2209512;40;20052;-77
2021/05/08 07:05:53;;;;;;;9.00;6.45;;;;;;;7.77;59.56;100140.72;2210133;40;20030;-76
2021/05/08 07:07:24;;;;;;;9.57;6.03;;;;;;;7.95;59.09;100134.88;2202257;40;20133;-78
2021/05/08 07:08:56;;;;;;;13.07;5.82;;;;;;;8.09;58.66;100129.25;2197083;40;20325;-78
2021/05/08 07:10:27;;;;;;;9.95;5.97;;;;;;;8.28;58.49;100127.72;2196187;40;20043;-76
2021/05/08 07:11:59;;;;;;;9.38;6.25;;;;;;;8.43;58.13;100130.91;2190694;40;20400;-76
2021/05/08 07:13:30;;;;;;;8.77;5.97;;;;;;;8.58;58.03;100127.00;2194283;40;20138;-77
2021/05/08 07:15:02;;;;;;;14.00;6.70;;;;;;;8.68;57.46;100112.91;2196222;40;20046;-76
2021/05/08 07:16:33;;;;;;;9.30;5.70;;;;;;;8.84;57.32;100118.59;2201088;40;20100;-76